Terminal Aerodrome Forecast
Issued by NWS Jackson, MS

Home | Current Version | Previous Version | Text Only | Print | Product List | Glossary On
Versions: 1 2 3 4 5 6 7 8 9 10 11 12 13 14
000
FTUS44 KJAN 231700
TAFMEI
TAF
KMEI 231730Z 2318/2418 03006KT P6SM SKC
     FM231900 03006KT P6SM FEW050
     FM240000 VRB03KT P6SM SKC
     FM240900 VRB03KT 5SM BR FEW250
     FM241600 19008KT P6SM SKC=

USA.gov is the U.S. government's official web portal to all federal, state and local government web resources and services.